• Join FlightAware (Why Join?)
  • Login
  • US Flag 
09:20PM EDT


 

Airport Tracker/Info


-or-


 

Live Flight TrackerFlight Track Log ✈ N53NW ✈ 12-May-2013 ✈ FA54 - KSGJ

Flight Track Log - Related Links

Times and Time Zones

All times are in EDT time to prevent confusion due to time zone crossing. See the N53NW flight status page for this flight to view local times or setup timezone preferences in your user account.

Time Position Orientation Groundspeed Altitude Reporting Facility
EDT Latitude Longitude Course Direction KTS MPH feet Rate Location/Type
02:27PM 26.9625 -82.1814 14° North 289 333 4,000  Level Miami Center
02:28PM 26.9697 -82.0956 85° East 295 339 6,400 2,400 Climbing Miami Center
02:29PM 27.0181 -82.0322 49° Northeast 266 306 8,900 1,260 Climbing Miami Center
02:30PM 27.0828 -81.9747 38° Northeast 266 306 9,000 180 Climbing Miami Center
02:31PM 27.1492 -81.9217 35° Northeast 277 319 9,300 3,960 Climbing Miami Center
02:33PM 27.5569 -82.0497 14° North  Level Estimated
02:33PM 27.2956 -81.8556 22° Northeast 277 319 21,000  Level Miami Center
02:34PM 27.3803 -81.8217 20° North 352 405 17,700 -540 Descending Miami Center
02:35PM 27.4522 -81.7897 22° Northeast 317 365 20,000 1,620 Climbing Miami Center
02:36PM 27.5411 -81.7539 20° North 317 365 21,000 480 Climbing Miami Center
02:37PM 27.6511 -81.7094 20° North 362 417 21,000  Level Miami Center
02:38PM 27.7506 -81.6689 20° North 375 432 21,000  Level Miami Center
02:39PM 27.8417 -81.6283 21° North 375 432 21,000  Level Miami Center
02:40PM 27.9389 -81.5878 20° North 375 432 21,000  Level Miami Center
02:41PM 28.0386 -81.5447 21° North 375 432 21,000  Level Miami Center
02:42PM 28.1358 -81.5064 19° North 375 432 21,000  Level Miami Center
02:44PM 28.2567 -81.4528 21° North 376 433 21,000  Level Jacksonville Center
02:45PM 28.3583 -81.4158 18° North 381 438 21,000 -540 Level Jacksonville Center
02:46PM 28.4378 -81.4219 356° North 371 427 20,000 -1,200 Descending Jacksonville Center
02:47PM 28.5444 -81.4439 350° North 352 405 18,600 -1,380 Descending Jacksonville Center
02:48PM 28.6364 -81.4450 359° North 342 394 17,300 -840 Descending Jacksonville Center
02:49PM 28.7344 -81.4364 North 337 388 17,000 -180 Descending Jacksonville Center
02:50PM 28.8303 -81.4281 North 343 395 17,000  Level Jacksonville Center
02:51PM 28.9283 -81.4217 North 349 402 17,000 60 Level Jacksonville Center
02:51PM 28.9844 -81.4161 North 350 403 17,100 -120 Climbing Jacksonville Center
02:52PM 29.0261 -81.4108 North 349 402 16,900 -840 Descending Jacksonville Center
02:53PM 29.1200 -81.3856 13° North 349 402 15,900 -1,380 Descending Jacksonville Center
02:54PM 29.2094 -81.3700 North 344 396 14,200 -2,340 Descending Jacksonville Center
02:55PM 29.3222 -81.3683 North 278 320 10,700 -2,520 Descending Jacksonville Center
02:56PM 29.3700 -81.3603 North 292 336 9,200 -2,460 Descending Jacksonville Center
02:56PM 29.3994 -81.3622 357° North 276 318 8,200 -2,520 Descending Jacksonville Center
02:57PM 29.4453 -81.3639 358° North 275 316 6,700 -2,580 Descending Jacksonville Center
02:57PM 29.4767 -81.3633 North 276 318 5,600 -1,500 Descending Jacksonville Center
02:58PM 29.5369 -81.3578 North 266 306 5,100 -960 Descending Jacksonville Center
02:59PM 29.5933 -81.3569 North 263 303 4,000 -1,200 Descending Jacksonville Center
03:00PM 29.6644 -81.3558 North 263 303 2,900 -600 Descending Jacksonville Center
03:01PM 29.7353 -81.3522 North 258 297 2,900 60 Level Jacksonville Center
03:01PM 29.7603 -81.3494 North 245 282 3,000 -420 Climbing Jacksonville Center
03:02PM 29.8269 -81.3292 15° North 234 269 2,400 -600 Descending Jacksonville Center
03:03PM 29.8703 -81.3022 28° Northeast 168 193 1,800 -540 Descending Jacksonville Center
03:04PM 29.9139 -81.2869 17° North 131 151 1,300 -480 Descending Jacksonville Center
03:05PM 29.9394 -81.3178 314° West 132 152 800 -540 Descending Jacksonville Center